sensor_id;sensor_type;location;lat;lon;timestamp;temperature;humidity
23991;DHT22;12205;50.600;4.608;2023-12-28T00:02:09;10.40;99.90
23991;DHT22;12205;50.600;4.608;2023-12-28T00:04:36;10.40;99.90
23991;DHT22;12205;50.600;4.608;2023-12-28T00:07:04;10.40;99.90
23991;DHT22;12205;50.600;4.608;2023-12-28T00:09:31;10.30;99.90
23991;DHT22;12205;50.600;4.608;2023-12-28T00:11:58;10.40;99.90
23991;DHT22;12205;50.600;4.608;2023-12-28T00:14:25;10.40;99.90
23991;DHT22;12205;50.600;4.608;2023-12-28T00:16:53;10.30;99.90
23991;DHT22;12205;50.600;4.608;2023-12-28T00:19:21;10.40;99.90
23991;DHT22;12205;50.600;4.608;2023-12-28T00:21:48;10.30;99.90
23991;DHT22;12205;50.600;4.608;2023-12-28T00:24:16;10.30;99.90
23991;DHT22;12205;50.600;4.608;2023-12-28T00:26:43;10.20;99.90
23991;DHT22;12205;50.600;4.608;2023-12-28T00:29:10;10.20;99.90
23991;DHT22;12205;50.600;4.608;2023-12-28T00:31:37;10.10;99.90
23991;DHT22;12205;50.600;4.608;2023-12-28T00:34:05;10.20;99.90
23991;DHT22;12205;50.600;4.608;2023-12-28T00:36:33;10.20;99.90
23991;DHT22;12205;50.600;4.608;2023-12-28T00:39:01;10.20;99.90
23991;DHT22;12205;50.600;4.608;2023-12-28T00:41:28;10.20;99.90
23991;DHT22;12205;50.600;4.608;2023-12-28T00:43:56;10.20;99.90
23991;DHT22;12205;50.600;4.608;2023-12-28T00:46:23;10.20;99.90
23991;DHT22;12205;50.600;4.608;2023-12-28T00:48:50;10.20;99.90
23991;DHT22;12205;50.600;4.608;2023-12-28T00:51:17;10.20;99.90
23991;DHT22;12205;50.600;4.608;2023-12-28T00:53:45;10.20;99.90
23991;DHT22;12205;50.600;4.608;2023-12-28T00:56:12;10.20;99.90
23991;DHT22;12205;50.600;4.608;2023-12-28T00:58:40;10.20;99.90
23991;DHT22;12205;50.600;4.608;2023-12-28T01:01:09;10.20;99.90
23991;DHT22;12205;50.600;4.608;2023-12-28T01:03:36;10.20;99.90
23991;DHT22;12205;50.600;4.608;2023-12-28T01:06:04;10.20;99.90
23991;DHT22;12205;50.600;4.608;2023-12-28T01:08:31;10.20;99.90
23991;DHT22;12205;50.600;4.608;2023-12-28T01:11:01;10.20;99.90
23991;DHT22;12205;50.600;4.608;2023-12-28T01:13:29;10.20;99.90
23991;DHT22;12205;50.600;4.608;2023-12-28T01:15:56;10.20;99.90
23991;DHT22;12205;50.600;4.608;2023-12-28T01:18:23;10.20;99.90
23991;DHT22;12205;50.600;4.608;2023-12-28T01:20:51;10.20;99.90
23991;DHT22;12205;50.600;4.608;2023-12-28T01:23:18;10.20;99.90
23991;DHT22;12205;50.600;4.608;2023-12-28T01:25:45;10.20;99.90
23991;DHT22;12205;50.600;4.608;2023-12-28T01:28:13;10.10;99.90
23991;DHT22;12205;50.600;4.608;2023-12-28T01:30:41;10.20;99.90
23991;DHT22;12205;50.600;4.608;2023-12-28T01:33:09;10.10;99.90
23991;DHT22;12205;50.600;4.608;2023-12-28T01:35:36;10.10;99.90
23991;DHT22;12205;50.600;4.608;2023-12-28T01:38:03;10.10;99.90
23991;DHT22;12205;50.600;4.608;2023-12-28T01:40:31;10.10;99.90
23991;DHT22;12205;50.600;4.608;2023-12-28T01:42:58;10.10;99.90
23991;DHT22;12205;50.600;4.608;2023-12-28T01:45:26;10.10;99.90
23991;DHT22;12205;50.600;4.608;2023-12-28T01:47:54;10.20;99.90
23991;DHT22;12205;50.600;4.608;2023-12-28T01:50:24;10.10;99.90
23991;DHT22;12205;50.600;4.608;2023-12-28T01:52:54;10.10;99.90
23991;DHT22;12205;50.600;4.608;2023-12-28T01:55:24;10.10;99.90
23991;DHT22;12205;50.600;4.608;2023-12-28T01:57:52;10.00;99.90
23991;DHT22;12205;50.600;4.608;2023-12-28T02:00:21;10.00;99.90
23991;DHT22;12205;50.600;4.608;2023-12-28T02:02:50;10.10;99.90
23991;DHT22;12205;50.600;4.608;2023-12-28T02:05:19;10.10;99.90
23991;DHT22;12205;50.600;4.608;2023-12-28T02:07:46;10.10;99.90
23991;DHT22;12205;50.600;4.608;2023-12-28T02:10:13;10.00;99.90
23991;DHT22;12205;50.600;4.608;2023-12-28T02:12:40;10.10;99.90
23991;DHT22;12205;50.600;4.608;2023-12-28T02:15:09;10.10;99.90
23991;DHT22;12205;50.600;4.608;2023-12-28T02:17:43;10.00;99.90
23991;DHT22;12205;50.600;4.608;2023-12-28T02:20:16;10.00;99.90
23991;DHT22;12205;50.600;4.608;2023-12-28T02:22:46;10.10;99.90
23991;DHT22;12205;50.600;4.608;2023-12-28T02:25:16;10.00;99.90
23991;DHT22;12205;50.600;4.608;2023-12-28T02:27:44;10.10;99.90
23991;DHT22;12205;50.600;4.608;2023-12-28T02:30:15;10.10;99.90
23991;DHT22;12205;50.600;4.608;2023-12-28T02:32:55;10.10;99.90
23991;DHT22;12205;50.600;4.608;2023-12-28T02:35:37;10.10;99.90
23991;DHT22;12205;50.600;4.608;2023-12-28T02:38:11;10.10;99.90
23991;DHT22;12205;50.600;4.608;2023-12-28T02:40:42;10.00;99.90
23991;DHT22;12205;50.600;4.608;2023-12-28T02:43:12;10.00;99.90
23991;DHT22;12205;50.600;4.608;2023-12-28T02:45:39;10.10;99.90
23991;DHT22;12205;50.600;4.608;2023-12-28T02:48:07;10.10;99.90
23991;DHT22;12205;50.600;4.608;2023-12-28T02:50:35;10.10;99.90
23991;DHT22;12205;50.600;4.608;2023-12-28T02:53:03;10.10;99.90
23991;DHT22;12205;50.600;4.608;2023-12-28T02:55:30;10.10;99.90
23991;DHT22;12205;50.600;4.608;2023-12-28T02:57:59;10.00;99.90
23991;DHT22;12205;50.600;4.608;2023-12-28T03:00:26;10.00;99.90
23991;DHT22;12205;50.600;4.608;2023-12-28T03:02:55;10.00;99.90
23991;DHT22;12205;50.600;4.608;2023-12-28T03:05:22;10.00;99.90
23991;DHT22;12205;50.600;4.608;2023-12-28T03:07:49;10.00;99.90
23991;DHT22;12205;50.600;4.608;2023-12-28T03:10:17;10.00;99.90
23991;DHT22;12205;50.600;4.608;2023-12-28T03:12:44;10.00;99.90
23991;DHT22;12205;50.600;4.608;2023-12-28T03:15:13;10.00;99.90
23991;DHT22;12205;50.600;4.608;2023-12-28T03:17:41;10.00;99.90
23991;DHT22;12205;50.600;4.608;2023-12-28T03:20:10;10.00;99.90
23991;DHT22;12205;50.600;4.608;2023-12-28T03:22:37;10.00;99.90
23991;DHT22;12205;50.600;4.608;2023-12-28T03:25:05;9.90;99.90
23991;DHT22;12205;50.600;4.608;2023-12-28T03:27:33;9.90;99.90
23991;DHT22;12205;50.600;4.608;2023-12-28T03:30:00;9.90;99.90
23991;DHT22;12205;50.600;4.608;2023-12-28T03:32:28;9.90;99.90
23991;DHT22;12205;50.600;4.608;2023-12-28T03:34:55;9.90;99.90
23991;DHT22;12205;50.600;4.608;2023-12-28T03:37:23;9.90;99.90
23991;DHT22;12205;50.600;4.608;2023-12-28T03:39:51;9.90;99.90
23991;DHT22;12205;50.600;4.608;2023-12-28T03:42:18;9.90;99.90
23991;DHT22;12205;50.600;4.608;2023-12-28T03:44:45;9.90;99.90
23991;DHT22;12205;50.600;4.608;2023-12-28T03:47:12;9.90;99.90
23991;DHT22;12205;50.600;4.608;2023-12-28T03:49:40;9.90;99.90
23991;DHT22;12205;50.600;4.608;2023-12-28T03:52:07;9.90;99.90
23991;DHT22;12205;50.600;4.608;2023-12-28T03:54:34;9.90;99.90
23991;DHT22;12205;50.600;4.608;2023-12-28T03:57:02;10.00;99.90
23991;DHT22;12205;50.600;4.608;2023-12-28T03:59:30;10.00;99.90
23991;DHT22;12205;50.600;4.608;2023-12-28T04:01:57;10.00;99.90
23991;DHT22;12205;50.600;4.608;2023-12-28T04:04:24;10.00;99.90
23991;DHT22;12205;50.600;4.608;2023-12-28T04:06:52;10.00;99.90
23991;DHT22;12205;50.600;4.608;2023-12-28T04:09:19;10.00;99.90
23991;DHT22;12205;50.600;4.608;2023-12-28T04:11:46;10.10;99.90
23991;DHT22;12205;50.600;4.608;2023-12-28T04:14:14;10.10;99.90
23991;DHT22;12205;50.600;4.608;2023-12-28T04:16:41;10.10;99.90
23991;DHT22;12205;50.600;4.608;2023-12-28T04:19:08;10.10;99.90
23991;DHT22;12205;50.600;4.608;2023-12-28T04:21:35;10.10;99.90
23991;DHT22;12205;50.600;4.608;2023-12-28T04:24:05;10.10;99.90
23991;DHT22;12205;50.600;4.608;2023-12-28T04:26:33;10.10;99.90
23991;DHT22;12205;50.600;4.608;2023-12-28T04:29:01;10.10;99.90
23991;DHT22;12205;50.600;4.608;2023-12-28T04:31:28;10.10;99.90
23991;DHT22;12205;50.600;4.608;2023-12-28T04:33:55;10.10;99.90
23991;DHT22;12205;50.600;4.608;2023-12-28T04:36:22;10.10;99.90
23991;DHT22;12205;50.600;4.608;2023-12-28T04:38:49;10.10;99.90
23991;DHT22;12205;50.600;4.608;2023-12-28T04:41:19;10.10;99.90
23991;DHT22;12205;50.600;4.608;2023-12-28T04:43:46;10.10;99.90
23991;DHT22;12205;50.600;4.608;2023-12-28T04:46:13;10.10;99.90
23991;DHT22;12205;50.600;4.608;2023-12-28T04:48:41;10.10;99.90
23991;DHT22;12205;50.600;4.608;2023-12-28T04:51:08;10.10;99.90
23991;DHT22;12205;50.600;4.608;2023-12-28T04:53:35;10.10;99.90
23991;DHT22;12205;50.600;4.608;2023-12-28T04:56:02;10.10;99.90
23991;DHT22;12205;50.600;4.608;2023-12-28T04:58:31;10.10;99.90
23991;DHT22;12205;50.600;4.608;2023-12-28T05:00:58;10.10;99.90
23991;DHT22;12205;50.600;4.608;2023-12-28T05:03:25;10.10;99.90
23991;DHT22;12205;50.600;4.608;2023-12-28T05:05:52;10.10;99.90
23991;DHT22;12205;50.600;4.608;2023-12-28T05:08:19;10.10;99.90
23991;DHT22;12205;50.600;4.608;2023-12-28T05:10:47;10.10;99.90
23991;DHT22;12205;50.600;4.608;2023-12-28T05:13:14;10.10;99.90
23991;DHT22;12205;50.600;4.608;2023-12-28T05:15:43;10.10;99.90
23991;DHT22;12205;50.600;4.608;2023-12-28T05:18:10;10.10;99.90
23991;DHT22;12205;50.600;4.608;2023-12-28T05:20:37;10.10;99.90
23991;DHT22;12205;50.600;4.608;2023-12-28T05:23:05;10.10;99.90
23991;DHT22;12205;50.600;4.608;2023-12-28T05:25:32;10.00;99.90
23991;DHT22;12205;50.600;4.608;2023-12-28T05:27:59;10.10;99.90
23991;DHT22;12205;50.600;4.608;2023-12-28T05:30:26;10.10;99.90
23991;DHT22;12205;50.600;4.608;2023-12-28T05:32:55;10.10;99.90
23991;DHT22;12205;50.600;4.608;2023-12-28T05:35:22;10.10;99.90
23991;DHT22;12205;50.600;4.608;2023-12-28T05:37:49;10.10;99.90
23991;DHT22;12205;50.600;4.608;2023-12-28T05:40:16;10.10;99.90
23991;DHT22;12205;50.600;4.608;2023-12-28T05:42:43;10.10;99.90
23991;DHT22;12205;50.600;4.608;2023-12-28T05:45:11;10.00;99.90
23991;DHT22;12205;50.600;4.608;2023-12-28T05:47:38;10.00;99.90
23991;DHT22;12205;50.600;4.608;2023-12-28T05:50:07;10.00;99.90
23991;DHT22;12205;50.600;4.608;2023-12-28T05:52:35;10.00;99.90
23991;DHT22;12205;50.600;4.608;2023-12-28T05:55:03;10.00;99.90
23991;DHT22;12205;50.600;4.608;2023-12-28T05:57:30;9.90;99.90
23991;DHT22;12205;50.600;4.608;2023-12-28T05:59:58;9.90;99.90
23991;DHT22;12205;50.600;4.608;2023-12-28T06:02:25;9.90;99.90
23991;DHT22;12205;50.600;4.608;2023-12-28T06:04:52;10.00;99.90
23991;DHT22;12205;50.600;4.608;2023-12-28T06:07:20;10.00;99.90
23991;DHT22;12205;50.600;4.608;2023-12-28T06:09:47;9.90;99.90
23991;DHT22;12205;50.600;4.608;2023-12-28T06:12:14;9.90;99.90
23991;DHT22;12205;50.600;4.608;2023-12-28T06:14:41;9.90;99.90
23991;DHT22;12205;50.600;4.608;2023-12-28T06:17:09;9.90;99.90
23991;DHT22;12205;50.600;4.608;2023-12-28T06:19:36;9.90;99.90
23991;DHT22;12205;50.600;4.608;2023-12-28T06:22:03;9.90;99.90
23991;DHT22;12205;50.600;4.608;2023-12-28T06:24:31;10.00;99.90
23991;DHT22;12205;50.600;4.608;2023-12-28T06:27:00;9.90;99.90
23991;DHT22;12205;50.600;4.608;2023-12-28T06:29:27;9.90;99.90
23991;DHT22;12205;50.600;4.608;2023-12-28T06:31:54;10.00;99.90
23991;DHT22;12205;50.600;4.608;2023-12-28T06:34:21;9.90;99.90
23991;DHT22;12205;50.600;4.608;2023-12-28T06:36:48;9.90;99.90
23991;DHT22;12205;50.600;4.608;2023-12-28T06:39:15;10.00;99.90
23991;DHT22;12205;50.600;4.608;2023-12-28T06:41:46;10.00;99.90
23991;DHT22;12205;50.600;4.608;2023-12-28T06:44:14;10.00;99.90
23991;DHT22;12205;50.600;4.608;2023-12-28T06:46:42;10.00;99.90
23991;DHT22;12205;50.600;4.608;2023-12-28T06:49:09;10.00;99.90
23991;DHT22;12205;50.600;4.608;2023-12-28T06:51:36;10.00;99.90
23991;DHT22;12205;50.600;4.608;2023-12-28T06:54:04;9.90;99.90
23991;DHT22;12205;50.600;4.608;2023-12-28T06:56:31;9.90;99.90
23991;DHT22;12205;50.600;4.608;2023-12-28T06:58:59;9.90;99.90
23991;DHT22;12205;50.600;4.608;2023-12-28T07:01:26;9.90;99.90
23991;DHT22;12205;50.600;4.608;2023-12-28T07:03:53;9.90;99.90
23991;DHT22;12205;50.600;4.608;2023-12-28T07:06:20;9.80;99.90
23991;DHT22;12205;50.600;4.608;2023-12-28T07:08:47;9.80;99.90
23991;DHT22;12205;50.600;4.608;2023-12-28T07:11:15;9.90;99.90
23991;DHT22;12205;50.600;4.608;2023-12-28T07:13:42;9.90;99.90
23991;DHT22;12205;50.600;4.608;2023-12-28T07:16:11;9.90;99.90
23991;DHT22;12205;50.600;4.608;2023-12-28T07:18:38;9.90;99.90
23991;DHT22;12205;50.600;4.608;2023-12-28T07:21:05;9.90;99.90
23991;DHT22;12205;50.600;4.608;2023-12-28T07:23:35;9.90;99.90
23991;DHT22;12205;50.600;4.608;2023-12-28T07:26:02;9.90;99.90
23991;DHT22;12205;50.600;4.608;2023-12-28T07:28:29;10.00;99.90
23991;DHT22;12205;50.600;4.608;2023-12-28T07:30:57;10.00;99.90
23991;DHT22;12205;50.600;4.608;2023-12-28T07:33:25;10.10;99.90
23991;DHT22;12205;50.600;4.608;2023-12-28T07:35:52;10.10;99.90
23991;DHT22;12205;50.600;4.608;2023-12-28T07:38:19;10.10;99.90
23991;DHT22;12205;50.600;4.608;2023-12-28T07:40:46;10.10;99.90
23991;DHT22;12205;50.600;4.608;2023-12-28T07:43:13;10.10;99.90
23991;DHT22;12205;50.600;4.608;2023-12-28T07:45:40;10.10;99.90
23991;DHT22;12205;50.600;4.608;2023-12-28T07:48:08;10.10;99.90
23991;DHT22;12205;50.600;4.608;2023-12-28T07:50:36;10.10;99.90
23991;DHT22;12205;50.600;4.608;2023-12-28T07:53:03;10.20;99.90
23991;DHT22;12205;50.600;4.608;2023-12-28T07:55:31;10.20;99.90
23991;DHT22;12205;50.600;4.608;2023-12-28T07:57:58;10.30;99.90
23991;DHT22;12205;50.600;4.608;2023-12-28T08:00:24;10.30;99.90
23991;DHT22;12205;50.600;4.608;2023-12-28T08:02:51;10.30;99.90
23991;DHT22;12205;50.600;4.608;2023-12-28T08:05:18;10.40;99.90
23991;DHT22;12205;50.600;4.608;2023-12-28T08:07:47;10.30;99.90
23991;DHT22;12205;50.600;4.608;2023-12-28T08:10:14;10.40;99.90
23991;DHT22;12205;50.600;4.608;2023-12-28T08:12:41;10.40;99.90
23991;DHT22;12205;50.600;4.608;2023-12-28T08:15:09;10.40;99.90
23991;DHT22;12205;50.600;4.608;2023-12-28T08:17:36;10.40;99.90
23991;DHT22;12205;50.600;4.608;2023-12-28T08:20:04;10.50;99.90
23991;DHT22;12205;50.600;4.608;2023-12-28T08:22:32;10.50;99.90
23991;DHT22;12205;50.600;4.608;2023-12-28T08:25:01;10.40;99.90
23991;DHT22;12205;50.600;4.608;2023-12-28T08:27:28;10.40;99.90
23991;DHT22;12205;50.600;4.608;2023-12-28T08:29:55;10.50;99.90
23991;DHT22;12205;50.600;4.608;2023-12-28T08:32:22;10.50;99.90
23991;DHT22;12205;50.600;4.608;2023-12-28T08:34:49;10.50;99.90
23991;DHT22;12205;50.600;4.608;2023-12-28T08:37:16;10.50;99.90
23991;DHT22;12205;50.600;4.608;2023-12-28T08:39:43;10.60;99.90
23991;DHT22;12205;50.600;4.608;2023-12-28T08:42:12;10.60;99.90
23991;DHT22;12205;50.600;4.608;2023-12-28T08:44:39;10.60;99.90
23991;DHT22;12205;50.600;4.608;2023-12-28T08:47:06;10.60;99.90
23991;DHT22;12205;50.600;4.608;2023-12-28T08:49:33;10.60;99.90
23991;DHT22;12205;50.600;4.608;2023-12-28T08:52:00;10.70;99.90
23991;DHT22;12205;50.600;4.608;2023-12-28T08:54:28;10.70;99.90
23991;DHT22;12205;50.600;4.608;2023-12-28T08:56:55;10.80;99.90
23991;DHT22;12205;50.600;4.608;2023-12-28T08:59:24;10.80;99.90
23991;DHT22;12205;50.600;4.608;2023-12-28T09:01:53;10.70;99.90
23991;DHT22;12205;50.600;4.608;2023-12-28T09:04:20;10.80;99.90
23991;DHT22;12205;50.600;4.608;2023-12-28T09:06:47;10.80;99.90
23991;DHT22;12205;50.600;4.608;2023-12-28T09:09:14;10.80;99.90
23991;DHT22;12205;50.600;4.608;2023-12-28T09:11:41;10.80;99.90
23991;DHT22;12205;50.600;4.608;2023-12-28T09:14:08;10.90;99.90
23991;DHT22;12205;50.600;4.608;2023-12-28T09:16:37;10.90;99.90
23991;DHT22;12205;50.600;4.608;2023-12-28T09:19:04;10.90;99.90
23991;DHT22;12205;50.600;4.608;2023-12-28T09:21:32;11.00;99.90
23991;DHT22;12205;50.600;4.608;2023-12-28T09:23:59;10.90;99.90
23991;DHT22;12205;50.600;4.608;2023-12-28T09:26:26;10.90;99.90
23991;DHT22;12205;50.600;4.608;2023-12-28T09:28:53;10.90;99.90
23991;DHT22;12205;50.600;4.608;2023-12-28T09:31:20;10.90;99.90
23991;DHT22;12205;50.600;4.608;2023-12-28T09:33:49;10.90;99.90
23991;DHT22;12205;50.600;4.608;2023-12-28T09:36:16;10.90;99.90
23991;DHT22;12205;50.600;4.608;2023-12-28T09:38:43;10.80;99.90
23991;DHT22;12205;50.600;4.608;2023-12-28T09:41:12;10.80;99.90
23991;DHT22;12205;50.600;4.608;2023-12-28T09:43:46;10.70;99.90
23991;DHT22;12205;50.600;4.608;2023-12-28T09:46:20;10.80;99.90
23991;DHT22;12205;50.600;4.608;2023-12-28T09:48:49;10.80;99.90
23991;DHT22;12205;50.600;4.608;2023-12-28T09:51:16;10.80;99.90
23991;DHT22;12205;50.600;4.608;2023-12-28T09:53:43;10.90;99.90
23991;DHT22;12205;50.600;4.608;2023-12-28T09:56:12;10.90;99.90
23991;DHT22;12205;50.600;4.608;2023-12-28T09:58:40;10.90;99.90
23991;DHT22;12205;50.600;4.608;2023-12-28T10:01:09;11.00;99.90
23991;DHT22;12205;50.600;4.608;2023-12-28T10:03:36;11.00;99.90
23991;DHT22;12205;50.600;4.608;2023-12-28T10:06:05;11.10;99.90
23991;DHT22;12205;50.600;4.608;2023-12-28T10:08:32;11.00;99.90
23991;DHT22;12205;50.600;4.608;2023-12-28T10:11:01;11.10;99.90
23991;DHT22;12205;50.600;4.608;2023-12-28T10:13:32;11.10;99.90
23991;DHT22;12205;50.600;4.608;2023-12-28T10:16:00;11.20;99.90
23991;DHT22;12205;50.600;4.608;2023-12-28T10:18:28;11.20;99.90
23991;DHT22;12205;50.600;4.608;2023-12-28T10:20:56;11.20;99.90
23991;DHT22;12205;50.600;4.608;2023-12-28T10:23:25;11.30;99.90
23991;DHT22;12205;50.600;4.608;2023-12-28T10:25:56;11.30;99.90
23991;DHT22;12205;50.600;4.608;2023-12-28T10:28:24;11.30;99.90
23991;DHT22;12205;50.600;4.608;2023-12-28T10:30:54;11.40;99.90
23991;DHT22;12205;50.600;4.608;2023-12-28T10:33:22;11.50;99.90
23991;DHT22;12205;50.600;4.608;2023-12-28T10:35:50;11.50;99.90
23991;DHT22;12205;50.600;4.608;2023-12-28T10:38:18;11.50;99.90
23991;DHT22;12205;50.600;4.608;2023-12-28T10:40:47;11.60;99.90
23991;DHT22;12205;50.600;4.608;2023-12-28T10:43:17;11.60;99.90
23991;DHT22;12205;50.600;4.608;2023-12-28T10:45:47;11.60;99.90
23991;DHT22;12205;50.600;4.608;2023-12-28T10:48:24;11.70;99.90
23991;DHT22;12205;50.600;4.608;2023-12-28T10:51:00;11.70;99.90
23991;DHT22;12205;50.600;4.608;2023-12-28T10:53:36;11.60;99.90
23991;DHT22;12205;50.600;4.608;2023-12-28T10:56:20;11.60;99.90
23991;DHT22;12205;50.600;4.608;2023-12-28T10:59:08;11.70;99.90
23991;DHT22;12205;50.600;4.608;2023-12-28T11:01:47;11.70;99.90
23991;DHT22;12205;50.600;4.608;2023-12-28T11:04:24;11.70;99.90
23991;DHT22;12205;50.600;4.608;2023-12-28T11:06:58;11.80;99.90
23991;DHT22;12205;50.600;4.608;2023-12-28T11:09:30;11.80;99.90
23991;DHT22;12205;50.600;4.608;2023-12-28T11:12:00;11.80;99.90
23991;DHT22;12205;50.600;4.608;2023-12-28T11:14:31;11.80;99.90
23991;DHT22;12205;50.600;4.608;2023-12-28T11:16:59;11.90;99.90
23991;DHT22;12205;50.600;4.608;2023-12-28T11:19:27;11.90;99.90
23991;DHT22;12205;50.600;4.608;2023-12-28T11:21:56;11.90;99.90
23991;DHT22;12205;50.600;4.608;2023-12-28T11:24:26;11.90;99.90
23991;DHT22;12205;50.600;4.608;2023-12-28T11:26:55;12.00;99.90
23991;DHT22;12205;50.600;4.608;2023-12-28T11:29:24;12.00;99.90
23991;DHT22;12205;50.600;4.608;2023-12-28T11:31:51;12.10;99.90
23991;DHT22;12205;50.600;4.608;2023-12-28T11:34:19;12.10;99.90
23991;DHT22;12205;50.600;4.608;2023-12-28T11:36:53;12.10;99.90
23991;DHT22;12205;50.600;4.608;2023-12-28T11:39:29;12.10;99.90
23991;DHT22;12205;50.600;4.608;2023-12-28T11:42:02;12.20;99.90
23991;DHT22;12205;50.600;4.608;2023-12-28T11:44:36;12.10;99.90
23991;DHT22;12205;50.600;4.608;2023-12-28T11:47:11;12.20;99.90
23991;DHT22;12205;50.600;4.608;2023-12-28T11:49:38;12.10;99.90
23991;DHT22;12205;50.600;4.608;2023-12-28T11:52:07;12.20;99.90
23991;DHT22;12205;50.600;4.608;2023-12-28T11:54:36;12.20;99.90
23991;DHT22;12205;50.600;4.608;2023-12-28T11:57:04;12.20;99.90
23991;DHT22;12205;50.600;4.608;2023-12-28T11:59:33;12.20;99.90
23991;DHT22;12205;50.600;4.608;2023-12-28T12:02:00;12.10;99.90
23991;DHT22;12205;50.600;4.608;2023-12-28T12:04:28;12.10;99.90
23991;DHT22;12205;50.600;4.608;2023-12-28T12:06:55;12.10;99.90
23991;DHT22;12205;50.600;4.608;2023-12-28T12:09:24;12.10;99.90
23991;DHT22;12205;50.600;4.608;2023-12-28T12:11:52;12.10;99.90
23991;DHT22;12205;50.600;4.608;2023-12-28T12:14:19;12.30;99.90
23991;DHT22;12205;50.600;4.608;2023-12-28T12:16:48;12.20;99.90
23991;DHT22;12205;50.600;4.608;2023-12-28T12:19:15;12.20;99.90
23991;DHT22;12205;50.600;4.608;2023-12-28T12:21:42;12.20;99.90
23991;DHT22;12205;50.600;4.608;2023-12-28T12:24:10;12.30;99.90
23991;DHT22;12205;50.600;4.608;2023-12-28T12:26:37;12.30;99.90
23991;DHT22;12205;50.600;4.608;2023-12-28T12:29:04;12.40;99.90
23991;DHT22;12205;50.600;4.608;2023-12-28T12:31:33;12.40;99.90
23991;DHT22;12205;50.600;4.608;2023-12-28T12:34:01;12.50;99.90
23991;DHT22;12205;50.600;4.608;2023-12-28T12:36:28;12.60;99.90
23991;DHT22;12205;50.600;4.608;2023-12-28T12:38:56;12.60;99.90
23991;DHT22;12205;50.600;4.608;2023-12-28T12:41:23;12.70;99.90
23991;DHT22;12205;50.600;4.608;2023-12-28T12:43:51;12.60;99.90
23991;DHT22;12205;50.600;4.608;2023-12-28T12:46:17;12.70;99.90
23991;DHT22;12205;50.600;4.608;2023-12-28T12:48:54;12.70;99.90
23991;DHT22;12205;50.600;4.608;2023-12-28T12:51:23;12.60;99.90
23991;DHT22;12205;50.600;4.608;2023-12-28T12:53:56;12.70;99.90
23991;DHT22;12205;50.600;4.608;2023-12-28T12:56:24;12.60;99.90
23991;DHT22;12205;50.600;4.608;2023-12-28T12:58:52;12.70;99.90
23991;DHT22;12205;50.600;4.608;2023-12-28T13:01:20;12.70;99.90
23991;DHT22;12205;50.600;4.608;2023-12-28T13:03:47;12.60;99.90
23991;DHT22;12205;50.600;4.608;2023-12-28T13:06:14;12.50;99.90
23991;DHT22;12205;50.600;4.608;2023-12-28T13:08:42;12.40;99.90
23991;DHT22;12205;50.600;4.608;2023-12-28T13:11:10;12.50;99.90
23991;DHT22;12205;50.600;4.608;2023-12-28T13:13:37;12.50;99.90
23991;DHT22;12205;50.600;4.608;2023-12-28T13:16:04;12.50;99.90
23991;DHT22;12205;50.600;4.608;2023-12-28T13:18:31;12.50;99.90
23991;DHT22;12205;50.600;4.608;2023-12-28T13:21:00;12.40;99.90
23991;DHT22;12205;50.600;4.608;2023-12-28T13:23:27;12.40;99.90
23991;DHT22;12205;50.600;4.608;2023-12-28T13:25:56;12.40;99.90
23991;DHT22;12205;50.600;4.608;2023-12-28T13:28:23;12.50;99.90
23991;DHT22;12205;50.600;4.608;2023-12-28T13:30:50;12.70;99.90
23991;DHT22;12205;50.600;4.608;2023-12-28T13:33:21;12.60;99.90
23991;DHT22;12205;50.600;4.608;2023-12-28T13:35:50;12.70;99.90
23991;DHT22;12205;50.600;4.608;2023-12-28T13:38:17;12.70;99.90
23991;DHT22;12205;50.600;4.608;2023-12-28T13:40:44;12.70;99.90
23991;DHT22;12205;50.600;4.608;2023-12-28T13:43:12;12.70;99.90
23991;DHT22;12205;50.600;4.608;2023-12-28T13:45:39;12.50;99.90
23991;DHT22;12205;50.600;4.608;2023-12-28T13:48:07;12.30;99.90
23991;DHT22;12205;50.600;4.608;2023-12-28T13:50:34;12.20;99.90
23991;DHT22;12205;50.600;4.608;2023-12-28T13:53:00;12.10;99.90
23991;DHT22;12205;50.600;4.608;2023-12-28T13:55:28;12.00;99.90
23991;DHT22;12205;50.600;4.608;2023-12-28T13:57:55;12.00;99.90
23991;DHT22;12205;50.600;4.608;2023-12-28T14:00:23;12.00;99.90
23991;DHT22;12205;50.600;4.608;2023-12-28T14:02:51;12.00;99.90
23991;DHT22;12205;50.600;4.608;2023-12-28T14:05:18;12.00;99.90
23991;DHT22;12205;50.600;4.608;2023-12-28T14:07:46;11.90;99.90
23991;DHT22;12205;50.600;4.608;2023-12-28T14:10:13;11.90;99.90
23991;DHT22;12205;50.600;4.608;2023-12-28T14:12:40;11.80;99.90
23991;DHT22;12205;50.600;4.608;2023-12-28T14:15:08;11.70;99.90
23991;DHT22;12205;50.600;4.608;2023-12-28T14:17:37;11.70;99.90
23991;DHT22;12205;50.600;4.608;2023-12-28T14:20:05;11.70;99.90
23991;DHT22;12205;50.600;4.608;2023-12-28T14:22:35;11.70;99.90
23991;DHT22;12205;50.600;4.608;2023-12-28T14:25:03;11.70;99.90
23991;DHT22;12205;50.600;4.608;2023-12-28T14:27:32;11.70;99.90
23991;DHT22;12205;50.600;4.608;2023-12-28T14:30:00;11.70;99.90
23991;DHT22;12205;50.600;4.608;2023-12-28T14:32:29;11.70;99.90
23991;DHT22;12205;50.600;4.608;2023-12-28T14:34:59;11.60;99.90
23991;DHT22;12205;50.600;4.608;2023-12-28T14:37:26;11.60;99.90
23991;DHT22;12205;50.600;4.608;2023-12-28T14:39:53;11.50;99.90
23991;DHT22;12205;50.600;4.608;2023-12-28T14:42:20;11.50;99.90
23991;DHT22;12205;50.600;4.608;2023-12-28T14:44:47;11.50;99.90
23991;DHT22;12205;50.600;4.608;2023-12-28T14:47:16;11.50;99.90
23991;DHT22;12205;50.600;4.608;2023-12-28T14:49:44;11.50;99.90
23991;DHT22;12205;50.600;4.608;2023-12-28T14:52:12;11.50;99.90
23991;DHT22;12205;50.600;4.608;2023-12-28T14:54:39;11.40;99.90
23991;DHT22;12205;50.600;4.608;2023-12-28T14:57:06;11.40;99.90
23991;DHT22;12205;50.600;4.608;2023-12-28T14:59:34;11.40;99.90
23991;DHT22;12205;50.600;4.608;2023-12-28T15:02:01;11.40;99.90
23991;DHT22;12205;50.600;4.608;2023-12-28T15:04:28;11.40;99.90
23991;DHT22;12205;50.600;4.608;2023-12-28T15:06:55;11.40;99.90
23991;DHT22;12205;50.600;4.608;2023-12-28T15:09:24;11.30;99.90
23991;DHT22;12205;50.600;4.608;2023-12-28T15:11:51;11.30;99.90
23991;DHT22;12205;50.600;4.608;2023-12-28T15:14:19;11.20;99.90
23991;DHT22;12205;50.600;4.608;2023-12-28T15:16:47;11.20;99.90
23991;DHT22;12205;50.600;4.608;2023-12-28T15:19:15;11.20;99.90
23991;DHT22;12205;50.600;4.608;2023-12-28T15:21:43;11.20;99.90
23991;DHT22;12205;50.600;4.608;2023-12-28T15:24:12;11.20;99.90
23991;DHT22;12205;50.600;4.608;2023-12-28T15:26:41;11.20;99.90
23991;DHT22;12205;50.600;4.608;2023-12-28T15:29:09;11.20;99.90
23991;DHT22;12205;50.600;4.608;2023-12-28T15:31:36;11.10;99.90
23991;DHT22;12205;50.600;4.608;2023-12-28T15:34:03;11.10;99.90
23991;DHT22;12205;50.600;4.608;2023-12-28T15:36:30;11.00;99.90
23991;DHT22;12205;50.600;4.608;2023-12-28T15:38:57;11.00;99.90